Terminal Aerodrome Forecast
Issued by NWS

Home | Current Version | Previous Version | Text Only | Print | Product List | Glossary On
Versions: 1 2 3 4 5 6 7 8 9 10 11 12 13 14 15 16 17 18
050
FTUS42 KMLB 262342
TAFSFB
TAF
KSFB 262342Z 2700/2724 26010KT P6SM FEW060 BKN250
     FM270300 23005KT P6SM SCT250
     FM271400 24008KT P6SM SCT025
     FM271900 25008KT P6SM VCSH BKN040
     FM272300 27007KT P6SM FEW040 BKN250=

USA.gov is the U.S. government's official web portal to all federal, state and local government web resources and services.